createdAt,value
2023-05-20T00:00:37.893Z,21.32
2023-05-20T00:01:37.848Z,21.32
2023-05-20T00:02:36.813Z,21.32
2023-05-20T00:03:36.891Z,21.27
2023-05-20T00:05:36.897Z,21.30
2023-05-20T00:06:37.768Z,21.25
2023-05-20T00:07:36.843Z,21.27
2023-05-20T00:08:37.782Z,21.28
2023-05-20T00:09:38.093Z,21.28
2023-05-20T00:10:37.793Z,21.25
2023-05-20T00:11:37.004Z,21.24
2023-05-20T00:12:36.779Z,21.25
2023-05-20T00:13:36.797Z,21.22
2023-05-20T00:14:36.762Z,21.28
2023-05-20T00:15:38.005Z,21.22
2023-05-20T00:16:36.858Z,21.25
2023-05-20T00:17:37.806Z,21.27
2023-05-20T00:18:36.872Z,21.25
2023-05-20T00:19:36.767Z,21.27
2023-05-20T00:20:36.795Z,21.28
2023-05-20T00:21:37.800Z,21.25
2023-05-20T00:22:36.884Z,21.25
2023-05-20T00:23:37.791Z,21.24
2023-05-20T00:24:37.787Z,21.25
2023-05-20T00:25:37.824Z,21.24
2023-05-20T00:26:36.870Z,21.25
2023-05-20T00:27:37.047Z,21.24
2023-05-20T00:28:37.050Z,21.22
2023-05-20T00:29:37.025Z,21.22
2023-05-20T00:30:36.887Z,21.22
2023-05-20T00:31:36.865Z,21.24
2023-05-20T00:32:36.839Z,21.21
2023-05-20T00:33:37.978Z,21.22
2023-05-20T00:34:37.900Z,21.21
2023-05-20T00:35:37.049Z,21.21
2023-05-20T00:36:36.798Z,21.20
2023-05-20T00:37:37.834Z,21.21
2023-05-20T00:38:37.790Z,21.22
2023-05-20T00:39:37.892Z,21.22
2023-05-20T00:40:36.802Z,21.22
2023-05-20T00:41:36.864Z,21.22
2023-05-20T00:42:37.078Z,21.20
2023-05-20T00:43:36.792Z,21.18
2023-05-20T00:44:36.818Z,21.20
2023-05-20T00:45:37.894Z,21.20
2023-05-20T00:46:36.887Z,21.21
2023-05-20T00:47:36.922Z,21.18
2023-05-20T00:48:36.782Z,21.18
2023-05-20T00:49:37.772Z,21.17
2023-05-20T00:50:37.799Z,21.18
2023-05-20T00:51:36.777Z,21.21
2023-05-20T00:52:36.776Z,21.21
2023-05-20T00:53:37.776Z,21.20
2023-05-20T00:54:37.756Z,21.15
2023-05-20T00:55:36.771Z,21.20
2023-05-20T00:56:37.742Z,21.17
2023-05-20T00:57:36.913Z,21.15
2023-05-20T00:58:37.007Z,21.17
2023-05-20T00:59:37.750Z,21.15
2023-05-20T01:00:37.916Z,21.18
2023-05-20T01:01:38.013Z,21.17
2023-05-20T01:02:36.825Z,21.17
2023-05-20T01:03:36.852Z,21.15
2023-05-20T01:04:36.709Z,21.18
2023-05-20T01:05:38.130Z,21.17
2023-05-20T01:06:36.938Z,21.15
2023-05-20T01:07:38.531Z,21.15
2023-05-20T01:08:36.736Z,21.17
2023-05-20T01:09:37.703Z,21.15
2023-05-20T01:10:36.785Z,21.13
2023-05-20T01:11:37.690Z,21.15
2023-05-20T01:12:36.882Z,21.13
2023-05-20T01:13:36.772Z,21.17
2023-05-20T01:14:36.772Z,21.14
2023-05-20T01:15:37.075Z,21.15
2023-05-20T01:16:36.776Z,21.15
2023-05-20T01:17:38.097Z,21.14
2023-05-20T01:18:36.680Z,21.15
2023-05-20T01:19:36.633Z,21.20
2023-05-20T01:20:37.619Z,21.15
2023-05-20T01:21:36.604Z,21.14
2023-05-20T01:22:36.636Z,21.14
2023-05-20T01:23:36.824Z,21.15
2023-05-20T01:24:36.578Z,21.14
2023-05-20T01:25:36.962Z,21.14
2023-05-20T01:26:36.580Z,21.15
2023-05-20T01:27:36.721Z,21.15
2023-05-20T01:28:36.650Z,21.13
2023-05-20T01:29:36.556Z,21.11
2023-05-20T01:30:36.682Z,21.13
2023-05-20T01:31:36.606Z,21.13
2023-05-20T01:32:36.721Z,21.11
2023-05-20T01:33:36.534Z,21.10
2023-05-20T01:34:37.568Z,21.11
2023-05-20T01:35:36.896Z,21.11
2023-05-20T01:36:36.540Z,21.07
2023-05-20T01:37:36.496Z,21.10
2023-05-20T01:38:37.482Z,21.10
2023-05-20T01:39:37.716Z,21.07
2023-05-20T01:40:37.627Z,21.10
2023-05-20T01:41:37.463Z,21.10
2023-05-20T01:42:36.459Z,21.11
2023-05-20T01:43:37.622Z,21.10
2023-05-20T01:44:36.453Z,21.05
2023-05-20T01:45:37.480Z,21.07
2023-05-20T01:46:36.485Z,21.10
2023-05-20T01:47:37.522Z,21.10
2023-05-20T01:48:36.606Z,21.07
2023-05-20T01:49:36.572Z,21.08
2023-05-20T01:50:36.570Z,21.08
2023-05-20T01:51:36.509Z,21.08
2023-05-20T01:52:37.490Z,21.10
2023-05-20T01:53:37.487Z,21.10
2023-05-20T01:54:37.536Z,21.10
2023-05-20T01:55:37.442Z,21.07
2023-05-20T01:56:36.408Z,21.07
2023-05-20T01:57:36.563Z,21.07
2023-05-20T01:58:37.474Z,21.05
2023-05-20T01:59:36.456Z,21.04
2023-05-20T02:00:37.475Z,21.05
2023-05-20T02:01:36.474Z,21.05
2023-05-20T02:02:36.732Z,21.07
2023-05-20T02:03:36.502Z,21.08
2023-05-20T02:04:37.645Z,21.07
2023-05-20T02:05:38.225Z,21.05
2023-05-20T02:06:36.561Z,21.05
2023-05-20T02:07:36.738Z,21.07
2023-05-20T02:08:37.715Z,21.05
2023-05-20T02:09:37.636Z,21.05
2023-05-20T02:10:36.603Z,21.04
2023-05-20T02:11:36.604Z,21.05
2023-05-20T02:12:36.651Z,21.05
2023-05-20T02:13:36.733Z,21.07
2023-05-20T02:14:37.653Z,21.04
2023-05-20T02:15:36.785Z,21.04
2023-05-20T02:16:37.810Z,21.04
2023-05-20T02:17:36.839Z,21.05
2023-05-20T02:18:36.788Z,21.05
2023-05-20T02:19:37.729Z,21.03
2023-05-20T02:20:36.736Z,21.04
2023-05-20T02:21:37.989Z,21.04
2023-05-20T02:22:37.778Z,21.03
2023-05-20T02:23:37.789Z,21.04
2023-05-20T02:24:37.954Z,21.03
2023-05-20T02:25:36.877Z,21.07
2023-05-20T02:26:36.955Z,21.03
2023-05-20T02:27:36.847Z,21.01
2023-05-20T02:28:37.998Z,21.05
2023-05-20T02:29:36.870Z,21.01
2023-05-20T02:30:37.881Z,21.01
2023-05-20T02:31:36.917Z,21.03
2023-05-20T02:32:36.951Z,21.00
2023-05-20T02:33:36.981Z,21.00
2023-05-20T02:34:38.087Z,21.00
2023-05-20T02:35:38.093Z,21.00
2023-05-20T02:36:36.970Z,21.01
2023-05-20T02:37:37.023Z,21.00
2023-05-20T02:38:37.039Z,21.00
2023-05-20T02:39:38.202Z,20.98
2023-05-20T02:40:37.308Z,21.00
2023-05-20T02:41:37.098Z,20.97
2023-05-20T02:42:38.099Z,21.01
2023-05-20T02:43:37.114Z,20.97
2023-05-20T02:44:37.239Z,21.01
2023-05-20T02:45:37.244Z,21.03
2023-05-20T02:46:37.188Z,20.98
2023-05-20T02:47:37.240Z,21.03
2023-05-20T02:48:37.210Z,21.03
2023-05-20T02:49:37.261Z,21.01
2023-05-20T02:50:38.392Z,21.00
2023-05-20T02:51:37.257Z,21.01
2023-05-20T02:52:38.256Z,20.97
2023-05-20T02:53:38.265Z,21.00
2023-05-20T02:54:38.259Z,20.98
2023-05-20T02:55:37.278Z,20.98
2023-05-20T02:56:37.282Z,20.98
2023-05-20T02:57:37.293Z,20.97
2023-05-20T02:58:37.320Z,20.97
2023-05-20T02:59:37.321Z,20.98
2023-05-20T03:00:38.350Z,20.94
2023-05-20T03:01:38.485Z,20.97
2023-05-20T03:02:37.398Z,20.98
2023-05-20T03:03:37.354Z,21.00
2023-05-20T03:04:38.734Z,20.97
2023-05-20T03:05:38.389Z,20.95
2023-05-20T03:06:38.673Z,20.98
2023-05-20T03:07:38.549Z,21.00
2023-05-20T03:08:37.525Z,20.97
2023-05-20T03:09:37.503Z,20.95
2023-05-20T03:10:37.516Z,20.95
2023-05-20T03:11:37.582Z,20.95
2023-05-20T03:12:38.609Z,20.97
2023-05-20T03:13:37.650Z,20.98
2023-05-20T03:14:38.751Z,20.98
2023-05-20T03:15:38.654Z,20.95
2023-05-20T03:16:37.637Z,20.98
2023-05-20T03:17:37.896Z,20.97
2023-05-20T03:18:37.682Z,20.98
2023-05-20T03:19:38.687Z,20.95
2023-05-20T03:20:37.870Z,20.95
2023-05-20T03:21:37.813Z,20.95
2023-05-20T03:22:37.846Z,20.95
2023-05-20T03:23:37.929Z,20.95
2023-05-20T03:24:37.789Z,20.95
2023-05-20T03:25:39.036Z,20.97
2023-05-20T03:26:37.819Z,20.94
2023-05-20T03:27:37.850Z,20.94
2023-05-20T03:28:38.953Z,20.93
2023-05-20T03:29:39.101Z,20.94
2023-05-20T03:30:39.168Z,20.93
2023-05-20T03:32:38.004Z,20.95
2023-05-20T03:33:37.998Z,20.90
2023-05-20T03:34:38.015Z,20.95
2023-05-20T03:35:38.047Z,20.93
2023-05-20T03:36:39.081Z,20.90
2023-05-20T03:37:39.098Z,20.90
2023-05-20T03:38:38.365Z,20.90
2023-05-20T03:39:38.114Z,20.91
2023-05-20T03:40:39.247Z,20.91
2023-05-20T03:41:38.439Z,20.91
2023-05-20T03:42:38.389Z,20.90
2023-05-20T03:43:38.489Z,20.90
2023-05-20T03:44:38.339Z,20.91
2023-05-20T03:45:38.277Z,20.90
2023-05-20T03:46:38.581Z,20.91
2023-05-20T03:47:38.351Z,20.90
2023-05-20T03:48:39.389Z,20.89
2023-05-20T03:49:39.472Z,20.90
2023-05-20T03:50:39.600Z,20.89
2023-05-20T03:51:38.436Z,20.89
2023-05-20T03:52:38.490Z,20.86
2023-05-20T03:53:38.620Z,20.87
2023-05-20T03:54:38.710Z,20.89
2023-05-20T03:55:38.621Z,20.89
2023-05-20T03:56:38.686Z,20.86
2023-05-20T03:57:38.745Z,20.87
2023-05-20T03:58:38.830Z,20.89
2023-05-20T03:59:39.904Z,20.89
2023-05-20T04:00:39.669Z,20.89
2023-05-20T04:01:38.721Z,20.87
2023-05-20T04:02:39.903Z,20.87
2023-05-20T04:03:39.801Z,20.87
2023-05-20T04:04:38.768Z,20.86
2023-05-20T04:05:38.832Z,20.89
2023-05-20T04:06:38.803Z,20.89
2023-05-20T04:07:39.921Z,20.87
2023-05-20T04:08:38.845Z,20.87
2023-05-20T04:09:39.918Z,20.86
2023-05-20T04:10:40.190Z,20.86
2023-05-20T04:11:40.105Z,20.84
2023-05-20T04:12:40.066Z,20.83
2023-05-20T04:13:39.190Z,20.83
2023-05-20T04:14:40.121Z,20.90
2023-05-20T04:15:39.328Z,20.89
2023-05-20T04:16:39.155Z,20.86
2023-05-20T04:17:40.136Z,20.87
2023-05-20T04:18:39.416Z,20.82
2023-05-20T04:19:39.178Z,20.83
2023-05-20T04:20:39.377Z,20.84
2023-05-20T04:21:40.414Z,20.86
2023-05-20T04:22:39.252Z,20.86
2023-05-20T04:23:39.301Z,20.84
2023-05-20T04:24:39.341Z,20.84
2023-05-20T04:25:39.726Z,20.86
2023-05-20T04:26:39.494Z,20.84
2023-05-20T04:27:39.435Z,20.84
2023-05-20T04:28:39.622Z,20.84
2023-05-20T04:29:39.692Z,20.84
2023-05-20T04:30:39.542Z,20.82
2023-05-20T04:31:39.744Z,20.83
2023-05-20T04:32:40.589Z,20.83
2023-05-20T04:33:40.710Z,20.84
2023-05-20T04:34:39.839Z,20.82
2023-05-20T04:35:40.680Z,20.86
2023-05-20T04:36:40.795Z,20.84
2023-05-20T04:37:39.737Z,20.82
2023-05-20T04:38:39.753Z,20.83
2023-05-20T04:39:40.776Z,20.83
2023-05-20T04:40:40.830Z,20.84
2023-05-20T04:41:40.100Z,20.86
2023-05-20T04:42:39.878Z,20.87
2023-05-20T04:43:40.892Z,20.86
2023-05-20T04:44:42.236Z,20.84
2023-05-20T04:45:40.084Z,20.83
2023-05-20T04:46:40.060Z,20.84
2023-05-20T04:47:40.149Z,20.84
2023-05-20T04:48:40.001Z,20.84
2023-05-20T04:49:40.091Z,20.84
2023-05-20T04:50:40.096Z,20.83
2023-05-20T04:51:40.353Z,20.83
2023-05-20T04:52:41.209Z,20.84
2023-05-20T04:53:40.201Z,20.86
2023-05-20T04:54:40.160Z,20.86
2023-05-20T04:55:40.268Z,20.86
2023-05-20T04:56:40.198Z,20.86
2023-05-20T04:57:41.445Z,20.84
2023-05-20T04:58:41.501Z,20.84
2023-05-20T04:59:41.486Z,20.86
2023-05-20T05:00:40.333Z,20.84
2023-05-20T05:01:41.407Z,20.83
2023-05-20T05:02:40.662Z,20.87
2023-05-20T05:03:40.520Z,20.84
2023-05-20T05:04:40.450Z,20.83
2023-05-20T05:05:40.425Z,20.86
2023-05-20T05:06:41.486Z,20.87
2023-05-20T05:07:40.597Z,20.87
2023-05-20T05:08:41.529Z,20.89
2023-05-20T05:09:41.715Z,20.84
2023-05-20T05:10:40.596Z,20.83
2023-05-20T05:11:40.630Z,20.87
2023-05-20T05:12:41.647Z,20.87
2023-05-20T05:13:40.772Z,20.86
2023-05-20T05:14:41.788Z,20.89
2023-05-20T05:15:40.755Z,20.90
2023-05-20T05:16:41.783Z,20.87
2023-05-20T05:17:41.858Z,20.87
2023-05-20T05:18:40.900Z,20.90
2023-05-20T05:19:40.878Z,20.87
2023-05-20T05:20:41.021Z,20.87
2023-05-20T05:21:41.990Z,20.90
2023-05-20T05:22:40.962Z,20.90
2023-05-20T05:23:40.991Z,20.91
2023-05-20T05:24:42.221Z,20.91
2023-05-20T05:25:42.077Z,20.90
2023-05-20T05:26:42.146Z,20.90
2023-05-20T05:27:41.264Z,20.90
2023-05-20T05:28:41.320Z,20.93
2023-05-20T05:29:42.211Z,20.91
2023-05-20T05:30:41.482Z,20.90
2023-05-20T05:31:41.434Z,20.90
2023-05-20T05:32:42.395Z,20.94
2023-05-20T05:33:41.296Z,20.94
2023-05-20T05:34:41.327Z,20.94
2023-05-20T05:35:41.360Z,20.94
2023-05-20T05:36:42.378Z,20.93
2023-05-20T05:37:42.391Z,20.95
2023-05-20T05:38:42.418Z,20.91
2023-05-20T05:39:42.463Z,20.94
2023-05-20T05:40:41.454Z,20.95
2023-05-20T05:41:42.512Z,20.95
2023-05-20T05:42:41.535Z,20.97
2023-05-20T05:43:42.509Z,20.95
2023-05-20T05:44:42.572Z,20.94
2023-05-20T05:45:42.607Z,20.95
2023-05-20T05:46:41.630Z,20.93
2023-05-20T05:47:42.708Z,21.00
2023-05-20T05:48:41.786Z,20.97
2023-05-20T05:49:41.617Z,20.98
2023-05-20T05:50:41.804Z,20.97
2023-05-20T05:51:42.672Z,21.00
2023-05-20T05:52:41.784Z,20.98
2023-05-20T05:53:41.748Z,21.01
2023-05-20T05:54:41.819Z,21.00
2023-05-20T05:55:42.741Z,21.01
2023-05-20T05:56:42.744Z,21.00
2023-05-20T05:57:41.788Z,21.03
2023-05-20T05:58:42.048Z,21.01
2023-05-20T05:59:41.847Z,21.01
2023-05-20T06:00:41.870Z,21.01
2023-05-20T06:01:42.101Z,21.03
2023-05-20T06:02:43.208Z,21.00
2023-05-20T06:03:42.074Z,21.04
2023-05-20T06:04:42.078Z,21.04
2023-05-20T06:05:42.976Z,21.05
2023-05-20T06:06:42.959Z,21.05
2023-05-20T06:07:42.052Z,21.08
2023-05-20T06:08:42.132Z,21.05
2023-05-20T06:09:43.152Z,21.07
2023-05-20T06:10:42.157Z,21.07
2023-05-20T06:11:42.169Z,21.07
2023-05-20T06:12:43.376Z,21.10
2023-05-20T06:13:43.152Z,21.10
2023-05-20T06:14:42.202Z,21.11
2023-05-20T06:15:43.152Z,21.13
2023-05-20T06:16:43.268Z,21.11
2023-05-20T06:17:42.405Z,21.14
2023-05-20T06:18:43.346Z,21.13
2023-05-20T06:19:42.492Z,21.17
2023-05-20T06:20:42.288Z,21.15
2023-05-20T06:21:43.283Z,21.14
2023-05-20T06:22:43.471Z,21.17
2023-05-20T06:23:42.302Z,21.15
2023-05-20T06:24:42.327Z,21.17
2023-05-20T06:25:42.454Z,21.18
2023-05-20T06:26:43.567Z,21.24
2023-05-20T06:27:43.595Z,21.21
2023-05-20T06:28:42.400Z,21.24
2023-05-20T06:29:43.874Z,21.22
2023-05-20T06:30:42.724Z,21.21
2023-05-20T06:31:43.668Z,21.22
2023-05-20T06:32:43.477Z,21.24
2023-05-20T06:33:43.466Z,21.25
2023-05-20T06:34:42.612Z,21.25
2023-05-20T06:35:42.601Z,21.30
2023-05-20T06:36:42.754Z,21.28
2023-05-20T06:37:42.548Z,21.30
2023-05-20T06:38:43.630Z,21.31
2023-05-20T06:39:42.588Z,21.32
2023-05-20T06:40:43.569Z,21.31
2023-05-20T06:41:43.597Z,21.32
2023-05-20T06:42:42.679Z,21.32
2023-05-20T06:43:43.689Z,21.31
2023-05-20T06:44:43.766Z,21.35
2023-05-20T06:45:42.792Z,21.32
2023-05-20T06:46:43.735Z,21.35
2023-05-20T06:47:43.818Z,21.35
2023-05-20T06:48:42.858Z,21.34
2023-05-20T06:49:45.058Z,21.35
2023-05-20T06:50:42.701Z,21.35
2023-05-20T06:51:42.714Z,21.35
2023-05-20T06:52:43.663Z,21.38
2023-05-20T06:53:43.737Z,21.38
2023-05-20T06:54:42.685Z,21.37
2023-05-20T06:55:42.838Z,21.35
2023-05-20T06:56:42.554Z,21.38
2023-05-20T06:57:42.643Z,21.41
2023-05-20T06:58:43.584Z,21.44
2023-05-20T06:59:43.530Z,21.42
2023-05-20T07:00:43.692Z,21.41
2023-05-20T07:01:43.605Z,21.42
2023-05-20T07:02:42.543Z,21.42
2023-05-20T07:03:43.537Z,21.45
2023-05-20T07:04:43.503Z,21.41
2023-05-20T07:05:43.473Z,21.44
2023-05-20T07:06:43.518Z,21.45
2023-05-20T07:07:42.679Z,21.46
2023-05-20T07:08:43.481Z,21.44
2023-05-20T07:09:43.444Z,21.46
2023-05-20T07:10:42.509Z,21.45
2023-05-20T07:11:43.676Z,21.42
2023-05-20T07:12:42.427Z,21.44
2023-05-20T07:13:42.433Z,21.46
2023-05-20T07:14:43.431Z,21.45
2023-05-20T07:15:43.485Z,21.45
2023-05-20T07:16:42.612Z,21.45
2023-05-20T07:17:42.500Z,21.46
2023-05-20T07:18:42.539Z,21.48
2023-05-20T07:19:42.427Z,21.45
2023-05-20T07:20:42.514Z,21.46
2023-05-20T07:21:42.650Z,21.48
2023-05-20T07:22:42.632Z,21.51
2023-05-20T07:23:42.343Z,21.51
2023-05-20T07:24:42.452Z,21.49
2023-05-20T07:25:42.596Z,21.48
2023-05-20T07:26:43.375Z,21.49
2023-05-20T07:27:43.317Z,21.51
2023-05-20T07:28:43.426Z,21.51
2023-05-20T07:29:43.474Z,21.48
2023-05-20T07:30:42.464Z,21.51
2023-05-20T07:31:43.441Z,21.53
2023-05-20T07:32:43.316Z,21.52
2023-05-20T07:33:42.550Z,21.53
2023-05-20T07:34:43.518Z,21.53
2023-05-20T07:35:43.302Z,21.53
2023-05-20T07:36:42.245Z,21.56
2023-05-20T07:37:43.251Z,21.56
2023-05-20T07:38:56.541Z,21.56
2023-05-20T07:39:43.401Z,21.59
2023-05-20T07:40:42.271Z,21.58
2023-05-20T07:41:43.510Z,21.60
2023-05-20T07:42:43.244Z,21.59
2023-05-20T07:43:43.260Z,21.60
2023-05-20T07:44:42.398Z,21.62
2023-05-20T07:45:42.456Z,21.62
2023-05-20T07:46:43.540Z,21.58
2023-05-20T07:47:43.213Z,21.62
2023-05-20T07:48:42.171Z,21.60
2023-05-20T07:49:42.352Z,21.62
2023-05-20T07:50:42.213Z,21.63
2023-05-20T07:51:42.492Z,21.63
2023-05-20T07:52:55.386Z,21.65
2023-05-20T07:53:43.347Z,21.63
2023-05-20T07:54:42.391Z,21.66
2023-05-20T07:55:42.333Z,21.66
2023-05-20T07:56:43.415Z,21.66
2023-05-20T07:57:44.877Z,21.68
2023-05-20T07:58:42.150Z,21.65
2023-05-20T07:59:42.091Z,21.68
2023-05-20T08:00:42.272Z,21.69
2023-05-20T08:01:42.252Z,21.66
2023-05-20T08:02:42.364Z,21.66
2023-05-20T08:03:43.411Z,21.69
2023-05-20T08:04:42.121Z,21.68
2023-05-20T08:05:42.046Z,21.68
2023-05-20T08:06:42.230Z,21.68
2023-05-20T08:07:42.103Z,21.68
2023-05-20T08:08:43.063Z,21.70
2023-05-20T08:09:42.150Z,21.70
2023-05-20T08:10:42.246Z,21.69
2023-05-20T08:11:42.034Z,21.70
2023-05-20T08:12:43.091Z,21.69
2023-05-20T08:13:43.048Z,21.70
2023-05-20T08:14:41.988Z,21.69
2023-05-20T08:15:42.037Z,21.72
2023-05-20T08:16:43.073Z,21.72
2023-05-20T08:17:42.115Z,21.70
2023-05-20T08:18:42.097Z,21.73
2023-05-20T08:19:41.985Z,21.73
2023-05-20T08:20:43.039Z,21.75
2023-05-20T08:21:43.058Z,21.72
2023-05-20T08:22:42.203Z,21.70
2023-05-20T08:23:43.187Z,21.73
2023-05-20T08:24:43.257Z,21.73
2023-05-20T08:25:43.505Z,21.73
2023-05-20T08:26:42.448Z,21.75
2023-05-20T08:27:42.510Z,21.72
2023-05-20T08:28:43.696Z,21.73
2023-05-20T08:29:42.626Z,21.73
2023-05-20T08:30:42.690Z,21.75
2023-05-20T08:31:42.766Z,21.76
2023-05-20T08:32:42.737Z,21.75
2023-05-20T08:33:43.780Z,21.75
2023-05-20T08:34:42.816Z,21.73
2023-05-20T08:35:42.827Z,21.73
2023-05-20T08:36:43.883Z,21.75
2023-05-20T08:37:43.933Z,21.73
2023-05-20T08:41:21.626Z,21.76
2023-05-20T08:42:21.732Z,21.78
2023-05-20T08:43:22.511Z,21.76
2023-05-20T08:44:22.565Z,21.79
2023-05-20T08:45:22.747Z,21.78
2023-05-20T08:46:22.892Z,21.76
2023-05-20T08:47:22.752Z,21.75
2023-05-20T08:48:21.791Z,21.79
2023-05-20T08:49:22.642Z,21.78
2023-05-20T08:50:21.705Z,21.78
2023-05-20T08:51:23.616Z,21.79
2023-05-20T08:54:50.883Z,21.76
2023-05-20T08:55:52.008Z,21.76
2023-05-20T08:56:51.896Z,21.78
2023-05-20T08:57:50.930Z,21.79
2023-05-20T08:58:51.871Z,21.78
2023-05-20T08:59:51.957Z,21.79
2023-05-20T09:00:51.055Z,21.80
2023-05-20T09:01:50.959Z,21.79
2023-05-20T09:02:50.891Z,21.79
2023-05-20T09:03:51.851Z,21.79
2023-05-20T09:04:51.834Z,21.80
2023-05-20T09:05:50.817Z,21.82
2023-05-20T09:06:50.815Z,21.80
2023-05-20T09:07:50.785Z,21.85
2023-05-20T09:08:51.889Z,21.83
2023-05-20T09:09:51.996Z,21.85
2023-05-20T09:10:51.939Z,21.82
2023-05-20T09:11:50.808Z,21.83
2023-05-20T09:12:50.792Z,21.85
2023-05-20T09:13:50.911Z,21.86
2023-05-20T09:14:51.754Z,21.85
2023-05-20T09:15:51.017Z,21.85
2023-05-20T09:16:50.860Z,21.86
2023-05-20T09:17:50.810Z,21.86
2023-05-20T09:18:50.769Z,21.86
2023-05-20T09:19:51.829Z,21.86
2023-05-20T09:20:51.764Z,21.86
2023-05-20T09:21:51.956Z,21.86
2023-05-20T09:22:52.010Z,21.85
2023-05-20T09:23:51.131Z,21.86
2023-05-20T09:24:51.001Z,21.86
2023-05-20T09:25:51.018Z,21.89
2023-05-20T09:26:52.114Z,21.87
2023-05-20T09:27:51.189Z,21.89
2023-05-20T09:28:51.319Z,21.86
2023-05-20T09:29:51.319Z,21.86
2023-05-20T09:30:51.260Z,21.89
2023-05-20T09:31:51.357Z,21.86
2023-05-20T09:32:52.441Z,21.90
2023-05-20T09:33:51.524Z,21.90
2023-05-20T09:34:51.493Z,21.90
2023-05-20T09:35:51.608Z,21.89
2023-05-20T09:36:52.579Z,21.89
2023-05-20T09:37:51.864Z,21.89
2023-05-20T09:38:52.659Z,21.90
2023-05-20T09:39:51.695Z,21.90
2023-05-20T09:40:51.873Z,21.90
2023-05-20T09:41:51.904Z,21.90
2023-05-20T09:42:51.838Z,21.89
2023-05-20T09:43:52.899Z,21.93
2023-05-20T09:44:53.018Z,21.90
2023-05-20T09:45:52.108Z,21.90
2023-05-20T09:46:52.020Z,21.93
2023-05-20T09:47:53.515Z,21.95
2023-05-20T09:48:52.105Z,21.92
2023-05-20T09:49:52.415Z,21.95
2023-05-20T09:50:52.199Z,21.93
2023-05-20T09:51:53.275Z,21.93
2023-05-20T09:52:52.300Z,21.92
2023-05-20T09:53:52.528Z,21.95
2023-05-20T09:54:53.378Z,21.96
2023-05-20T09:55:53.512Z,21.93
2023-05-20T09:56:52.665Z,21.95
2023-05-20T09:57:52.524Z,21.95
2023-05-20T09:58:53.624Z,21.96
2023-05-20T09:59:52.619Z,21.92
2023-05-20T10:00:52.677Z,21.93
2023-05-20T10:01:52.968Z,21.96
2023-05-20T10:02:54.119Z,21.95
2023-05-20T10:03:52.844Z,21.95
2023-05-20T10:04:52.864Z,21.96
2023-05-20T10:05:53.951Z,21.95
2023-05-20T10:06:53.914Z,21.95
2023-05-20T10:07:52.993Z,21.95
2023-05-20T10:08:54.123Z,21.96
2023-05-20T10:09:53.161Z,21.96
2023-05-20T10:10:54.094Z,21.95
2023-05-20T10:11:53.050Z,21.96
2023-05-20T10:12:54.265Z,21.97
2023-05-20T10:13:53.071Z,21.97
2023-05-20T10:14:54.130Z,21.97
2023-05-20T10:15:53.177Z,21.97
2023-05-20T10:16:54.372Z,21.97
2023-05-20T10:17:54.465Z,21.97
2023-05-20T10:18:53.289Z,21.97
2023-05-20T10:19:54.294Z,21.96
2023-05-20T10:20:53.314Z,21.97
2023-05-20T10:21:53.365Z,21.99
2023-05-20T10:22:53.545Z,21.99
2023-05-20T10:23:53.474Z,21.97
2023-05-20T10:24:53.472Z,21.96
2023-05-20T10:25:54.496Z,21.97
2023-05-20T10:26:54.525Z,22.00
2023-05-20T10:27:54.570Z,21.99
2023-05-20T10:28:53.603Z,21.99
2023-05-20T10:29:53.641Z,21.97
2023-05-20T10:30:54.685Z,21.96
2023-05-20T10:31:54.745Z,21.99
2023-05-20T10:32:53.981Z,22.01
2023-05-20T10:33:53.803Z,21.99
2023-05-20T10:34:54.840Z,22.01
2023-05-20T10:35:53.881Z,21.97
2023-05-20T10:36:54.602Z,21.99
2023-05-20T10:37:55.069Z,21.97
2023-05-20T10:38:54.100Z,22.00
2023-05-20T10:39:54.019Z,22.00
2023-05-20T10:40:54.115Z,21.99
2023-05-20T10:41:54.192Z,22.00
2023-05-20T10:42:55.159Z,22.00
2023-05-20T10:43:55.189Z,22.01
2023-05-20T10:44:54.230Z,22.00
2023-05-20T10:45:54.268Z,21.99
2023-05-20T10:47:55.483Z,22.00
2023-05-20T10:48:54.458Z,22.00
2023-05-20T10:49:55.278Z,22.04
2023-05-20T10:50:55.318Z,22.04
2023-05-20T10:51:55.251Z,22.01
2023-05-20T10:52:54.547Z,22.01
2023-05-20T10:53:55.374Z,22.03
2023-05-20T10:54:54.238Z,22.01
2023-05-20T10:55:55.229Z,22.03
2023-05-20T10:56:54.454Z,22.03
2023-05-20T10:57:54.353Z,22.03
2023-05-20T10:58:55.191Z,22.04
2023-05-20T10:59:54.209Z,22.00
2023-05-20T11:00:54.268Z,22.04
2023-05-20T11:01:55.285Z,22.03
2023-05-20T11:02:55.458Z,22.04
2023-05-20T11:03:55.379Z,22.03
2023-05-20T11:04:55.531Z,22.03
2023-05-20T11:05:54.488Z,22.06
2023-05-20T11:06:54.667Z,22.06
2023-05-20T11:07:55.452Z,22.04
2023-05-20T11:08:54.598Z,22.04
2023-05-20T11:09:55.585Z,22.07
2023-05-20T11:10:54.647Z,22.04
2023-05-20T11:11:54.561Z,22.06
2023-05-20T11:12:54.650Z,22.04
2023-05-20T11:13:54.785Z,22.04
2023-05-20T11:14:55.770Z,22.04
2023-05-20T11:15:55.761Z,22.06
2023-05-20T11:16:54.768Z,22.06
2023-05-20T11:17:55.706Z,22.08
2023-05-20T11:18:54.808Z,22.06
2023-05-20T11:19:54.687Z,22.07
2023-05-20T11:20:55.743Z,22.07
2023-05-20T11:21:54.833Z,22.06
2023-05-20T11:22:54.756Z,22.04
2023-05-20T11:23:54.776Z,22.08
2023-05-20T11:24:54.894Z,22.08
2023-05-20T11:25:54.833Z,22.08
2023-05-20T11:26:55.947Z,22.07
2023-05-20T11:27:55.041Z,22.10
2023-05-20T11:28:54.889Z,22.11
2023-05-20T11:29:55.967Z,22.08
2023-05-20T11:30:55.034Z,22.08
2023-05-20T11:31:55.046Z,22.07
2023-05-20T11:32:56.169Z,22.10
2023-05-20T11:33:56.026Z,22.10
2023-05-20T11:34:55.230Z,22.10
2023-05-20T11:35:55.299Z,22.11
2023-05-20T11:36:56.148Z,22.11
2023-05-20T11:37:55.299Z,22.10
2023-05-20T11:38:55.200Z,22.11
2023-05-20T11:39:56.143Z,22.08
2023-05-20T11:40:56.831Z,22.13
2023-05-20T11:41:56.415Z,22.14
2023-05-20T11:42:56.274Z,22.14
2023-05-20T11:43:56.398Z,22.13
2023-05-20T11:44:56.257Z,22.13
2023-05-20T11:45:55.358Z,22.14
2023-05-20T11:46:56.541Z,22.13
2023-05-20T11:47:56.413Z,22.16
2023-05-20T11:48:55.340Z,22.13
2023-05-20T11:49:55.341Z,22.13
2023-05-20T11:50:56.387Z,22.13
2023-05-20T11:51:55.615Z,22.11
2023-05-20T11:52:55.505Z,22.14
2023-05-20T11:53:55.401Z,22.13
2023-05-20T11:54:56.411Z,22.13
2023-05-20T11:55:55.484Z,22.16
2023-05-20T11:56:56.430Z,22.14
2023-05-20T11:57:56.455Z,22.13
2023-05-20T11:58:55.508Z,22.14
2023-05-20T11:59:56.483Z,22.16
2023-05-20T12:01:02.306Z,22.17
2023-05-20T12:01:56.483Z,22.17
2023-05-20T12:02:56.530Z,22.16
2023-05-20T12:03:55.711Z,22.16
2023-05-20T12:04:56.909Z,22.17
2023-05-20T12:05:55.448Z,22.16
2023-05-20T12:06:55.436Z,22.16
2023-05-20T12:07:56.689Z,22.17
2023-05-20T12:08:55.504Z,22.16
2023-05-20T12:09:56.427Z,22.16
2023-05-20T12:10:55.498Z,22.17
2023-05-20T12:11:55.562Z,22.17
2023-05-20T12:12:55.391Z,22.18
2023-05-20T12:13:56.397Z,22.18
2023-05-20T12:14:56.564Z,22.17
2023-05-20T12:15:55.495Z,22.18
2023-05-20T12:16:55.364Z,22.20
2023-05-20T12:17:56.443Z,22.17
2023-05-20T12:18:55.395Z,22.18
2023-05-20T12:19:55.485Z,22.20
2023-05-20T12:20:55.495Z,22.18
2023-05-20T12:21:56.354Z,22.23
2023-05-20T12:22:55.330Z,22.20
2023-05-20T12:23:56.351Z,22.17
2023-05-20T12:24:56.356Z,22.20
2023-05-20T12:25:56.498Z,22.17
2023-05-20T12:26:56.318Z,22.20
2023-05-20T12:27:56.445Z,22.21
2023-05-20T12:28:56.332Z,22.20
2023-05-20T12:29:55.520Z,22.17
2023-05-20T12:30:56.551Z,22.20
2023-05-20T12:31:55.314Z,22.21
2023-05-20T12:32:55.306Z,22.18
2023-05-20T12:33:56.432Z,22.20
2023-05-20T12:34:56.258Z,22.20
2023-05-20T12:35:56.237Z,22.20
2023-05-20T12:36:56.433Z,22.21
2023-05-20T12:37:55.398Z,22.18
2023-05-20T12:38:56.454Z,22.18
2023-05-20T12:39:56.230Z,22.18
2023-05-20T12:40:56.232Z,22.18
2023-05-20T12:41:56.437Z,22.20
2023-05-20T12:42:55.300Z,22.20
2023-05-20T12:43:55.247Z,22.20
2023-05-20T12:44:56.400Z,22.20
2023-05-20T12:45:55.288Z,22.20
2023-05-20T12:46:55.407Z,22.21
2023-05-20T12:47:55.403Z,22.23
2023-05-20T12:48:55.182Z,22.20
2023-05-20T12:49:56.226Z,22.24
2023-05-20T12:50:56.156Z,22.20
2023-05-20T12:51:55.267Z,22.20
2023-05-20T12:52:56.291Z,22.20
2023-05-20T12:53:56.161Z,22.23
2023-05-20T12:54:56.224Z,22.23
2023-05-20T12:55:55.174Z,22.20
2023-05-20T12:56:56.136Z,22.20
2023-05-20T12:57:55.086Z,22.18
2023-05-20T12:58:55.093Z,22.18
2023-05-20T12:59:55.180Z,22.20
2023-05-20T13:00:55.109Z,22.20